Time;durP1;ratioP1;P1;durP2;ratioP2;P2;SDS_P1;SDS_P2;PMS_P1;PMS_P2;Temp;Humidity;BMP_temperature;BMP_pressure;BME280_temperature;BME280_humidity;BME280_pressure;Samples;Min_cycle;Max_cycle;Signal;HPM_P1;HPM_P2
2022/02/27 00:01:42;;;;;;;4.90;3.70;;;4.40;95.70;;;;;;10391026;28;20690;-83
2022/02/27 00:06:44;;;;;;;6.80;3.40;;;4.30;94.70;;;;;;10386365;28;20211;-86
2022/02/27 00:11:48;;;;;;;4.20;3.53;;;4.30;94.70;;;;;;10378777;28;20298;-84
2022/02/27 00:16:50;;;;;;;6.87;3.83;;;4.20;94.60;;;;;;10377002;28;20213;-85
2022/02/27 00:21:53;;;;;;;7.70;4.30;;;4.10;94.90;;;;;;10405853;28;20237;-83
2022/02/27 00:26:57;;;;;;;8.57;4.03;;;4.10;95.00;;;;;;10370513;28;20309;-83
2022/02/27 00:31:59;;;;;;;7.47;3.83;;;4.00;94.80;;;;;;10389001;28;20753;-83
2022/02/27 00:37:02;;;;;;;7.90;4.13;;;4.00;96.00;;;;;;10378954;28;20292;-85
2022/02/27 00:42:06;;;;;;;5.30;3.80;;;4.00;95.20;;;;;;10375448;28;20221;-86
2022/02/27 00:47:09;;;;;;;11.07;4.07;;;4.00;96.10;;;;;;10384781;28;20206;-85
2022/02/27 00:52:11;;;;;;;5.70;3.77;;;4.00;96.80;;;;;;10387744;28;20250;-84
2022/02/27 00:57:14;;;;;;;8.47;3.87;;;4.10;96.20;;;;;;10381359;28;20237;-85
2022/02/27 01:02:17;;;;;;;10.90;3.70;;;4.10;96.10;;;;;;10379489;28;20236;-85
2022/02/27 01:07:19;;;;;;;5.57;3.53;;;4.00;95.80;;;;;;10366581;28;20746;-85
2022/02/27 01:12:23;;;;;;;6.73;4.00;;;4.00;96.20;;;;;;10383289;28;20727;-84
2022/02/27 01:17:26;;;;;;;7.03;4.17;;;4.00;95.70;;;;;;10395479;28;20225;-85
2022/02/27 01:22:28;;;;;;;8.43;4.13;;;3.90;96.00;;;;;;10391759;28;20238;-86
2022/02/27 01:27:31;;;;;;;6.30;3.60;;;3.90;95.90;;;;;;10389539;28;20197;-85
2022/02/27 01:32:33;;;;;;;3.70;2.87;;;3.90;96.80;;;;;;10368184;28;20226;-84
2022/02/27 01:37:36;;;;;;;7.20;4.30;;;3.90;96.30;;;;;;10397595;28;20312;-85
2022/02/27 01:42:40;;;;;;;8.70;4.10;;;3.80;96.80;;;;;;10382139;28;20244;-83
2022/02/27 01:47:42;;;;;;;6.70;4.07;;;3.80;96.20;;;;;;10393277;28;20198;-83
2022/02/27 01:52:44;;;;;;;5.43;3.80;;;3.80;96.40;;;;;;10398994;28;20202;-83
2022/02/27 01:57:48;;;;;;;10.17;4.10;;;3.70;95.70;;;;;;10401070;28;20224;-84
2022/02/27 02:02:50;;;;;;;8.60;4.67;;;3.70;96.00;;;;;;10392662;28;20202;-83
2022/02/27 02:07:53;;;;;;;9.50;4.20;;;3.60;96.30;;;;;;10387161;28;20248;-83
2022/02/27 02:13:00;;;;;;;8.23;3.80;;;3.50;96.10;;;;;;10406672;28;20294;-86
2022/02/27 02:18:02;;;;;;;8.30;4.63;;;3.50;96.70;;;;;;10412268;28;20226;-84
2022/02/27 02:23:06;;;;;;;6.27;3.93;;;3.50;96.70;;;;;;10408127;28;20197;-86
2022/02/27 02:28:11;;;;;;;7.83;4.10;;;3.60;96.20;;;;;;10417079;28;20758;-85
2022/02/27 02:33:13;;;;;;;5.47;3.83;;;3.50;96.80;;;;;;10410221;28;20681;-83
2022/02/27 02:38:17;;;;;;;7.63;3.77;;;3.50;97.20;;;;;;10426096;28;20221;-84
2022/02/27 02:43:19;;;;;;;6.77;4.23;;;3.50;96.80;;;;;;10425337;28;20248;-83
2022/02/27 02:48:21;;;;;;;6.27;4.43;;;3.50;96.80;;;;;;10422676;28;20211;-83
2022/02/27 02:53:37;;;;;;;6.43;3.93;;;3.50;96.20;;;;;;10408450;28;20189;-83
2022/02/27 02:58:43;;;;;;;7.03;3.73;;;3.40;97.30;;;;;;10407871;28;20225;-85
2022/02/27 03:03:47;;;;;;;7.87;3.97;;;3.40;97.00;;;;;;10423959;28;20601;-84
2022/02/27 03:08:52;;;;;;;6.47;3.73;;;3.40;97.00;;;;;;10430365;28;20222;-86
2022/02/27 03:14:00;;;;;;;7.57;4.17;;;3.40;96.60;;;;;;10425134;28;20243;-86
2022/02/27 03:19:08;;;;;;;7.10;4.20;;;3.30;96.60;;;;;;10410739;28;20298;-84
2022/02/27 03:24:11;;;;;;;8.20;4.03;;;3.30;97.10;;;;;;10409743;28;20194;-85
2022/02/27 03:29:30;;;;;;;11.83;4.63;;;3.20;97.00;;;;;;10412933;28;20253;-85
2022/02/27 03:34:32;;;;;;;8.63;4.70;;;3.20;97.50;;;;;;10363798;28;20214;-85
2022/02/27 03:39:36;;;;;;;8.90;4.07;;;3.20;96.80;;;;;;10398972;28;20214;-84
2022/02/27 03:44:38;;;;;;;6.70;4.33;;;3.20;96.50;;;;;;10358821;28;20205;-84
2022/02/27 03:49:40;;;;;;;7.73;4.90;;;3.10;96.90;;;;;;10371623;28;20225;-84
2022/02/27 03:54:43;;;;;;;11.23;4.60;;;3.10;97.00;;;;;;10405714;28;20198;-84
2022/02/27 03:59:46;;;;;;;5.50;4.13;;;3.10;97.40;;;;;;10386936;28;20232;-84
2022/02/27 04:04:48;;;;;;;5.17;4.00;;;3.10;96.70;;;;;;10381592;28;20206;-85
2022/02/27 04:09:52;;;;;;;8.33;4.60;;;3.10;97.10;;;;;;10362741;28;20227;-85
2022/02/27 04:14:54;;;;;;;4.37;3.90;;;3.00;97.40;;;;;;10378779;28;20201;-84
2022/02/27 04:19:56;;;;;;;6.10;4.17;;;3.10;97.30;;;;;;10383015;28;20257;-84
2022/02/27 04:25:00;;;;;;;8.00;4.40;;;3.00;97.40;;;;;;10395561;28;20194;-83
2022/02/27 04:30:02;;;;;;;10.37;5.23;;;3.00;96.50;;;;;;10391569;28;20230;-84
2022/02/27 04:35:05;;;;;;;7.83;4.00;;;2.90;96.70;;;;;;10384171;28;20206;-84
2022/02/27 04:40:10;;;;;;;7.67;4.83;;;2.90;97.10;;;;;;10390648;28;20239;-84
2022/02/27 04:45:12;;;;;;;9.10;4.57;;;2.80;97.60;;;;;;10391767;28;20194;-84
2022/02/27 04:50:14;;;;;;;10.80;4.37;;;2.80;96.90;;;;;;10392827;28;20305;-85
2022/02/27 04:55:18;;;;;;;5.30;4.33;;;2.80;97.20;;;;;;10390955;28;20233;-85
2022/02/27 05:00:20;;;;;;;6.83;4.90;;;2.80;97.20;;;;;;10411620;28;20225;-85
2022/02/27 05:05:22;;;;;;;7.43;4.90;;;2.70;97.60;;;;;;10386329;28;20622;-85
2022/02/27 05:10:26;;;;;;;6.83;4.60;;;2.70;97.40;;;;;;10380167;28;20296;-84
2022/02/27 05:15:28;;;;;;;5.90;4.80;;;2.70;97.90;;;;;;10381806;28;20202;-84
2022/02/27 05:20:30;;;;;;;8.30;4.80;;;2.80;97.30;;;;;;10373833;28;20225;-85
2022/02/27 05:25:33;;;;;;;8.40;5.57;;;2.70;96.80;;;;;;10392130;28;20208;-86
2022/02/27 05:30:35;;;;;;;12.10;5.40;;;2.70;97.80;;;;;;10430382;28;20632;-85
2022/02/27 05:35:37;;;;;;;8.63;5.50;;;2.70;97.10;;;;;;10390897;28;20202;-85
2022/02/27 05:40:41;;;;;;;6.17;4.70;;;2.70;97.20;;;;;;10386584;28;20222;-85
2022/02/27 05:46:01;;;;;;;7.10;5.47;;;2.60;97.30;;;;;;10396250;28;20205;-85
2022/02/27 05:51:03;;;;;;;6.63;4.93;;;2.70;97.90;;;;;;10413829;28;20277;-85
2022/02/27 05:56:07;;;;;;;8.00;5.57;;;2.60;97.30;;;;;;10403587;28;20253;-85
2022/02/27 06:01:10;;;;;;;10.70;5.70;;;2.60;97.50;;;;;;10402362;28;20364;-85
2022/02/27 06:06:12;;;;;;;8.57;6.20;;;2.60;97.80;;;;;;10386793;28;20681;-85
2022/02/27 06:11:16;;;;;;;8.53;5.97;;;2.60;97.80;;;;;;10391967;28;20292;-85
2022/02/27 06:16:18;;;;;;;8.30;6.37;;;2.50;97.70;;;;;;10389589;28;20256;-83
2022/02/27 06:21:20;;;;;;;13.60;7.47;;;2.50;97.00;;;;;;10402602;28;20751;-83
2022/02/27 06:26:24;;;;;;;8.47;6.77;;;2.50;97.30;;;;;;10403539;28;20198;-83
2022/02/27 06:31:26;;;;;;;9.53;7.17;;;2.50;98.20;;;;;;10395288;28;20279;-84
2022/02/27 06:36:28;;;;;;;7.47;6.60;;;2.50;98.30;;;;;;10417525;28;20205;-83
2022/02/27 06:41:31;;;;;;;10.23;6.63;;;2.60;98.40;;;;;;10418977;28;20210;-84
2022/02/27 06:46:34;;;;;;;11.40;7.80;;;2.60;98.00;;;;;;10381725;28;20221;-83
2022/02/27 06:51:36;;;;;;;11.60;9.17;;;2.60;98.30;;;;;;10418597;28;20210;-83
2022/02/27 06:56:39;;;;;;;11.40;8.30;;;2.60;98.40;;;;;;10389806;28;20666;-83
2022/02/27 07:01:43;;;;;;;9.50;7.90;;;2.70;98.80;;;;;;10376740;28;20284;-85
2022/02/27 07:06:45;;;;;;;8.70;7.20;;;2.80;98.40;;;;;;10368982;28;20225;-86
2022/02/27 07:11:48;;;;;;;9.27;6.70;;;2.80;98.80;;;;;;10377018;28;20301;-85
2022/02/27 07:16:51;;;;;;;10.13;6.80;;;2.80;98.40;;;;;;10407976;28;20193;-85
2022/02/27 07:21:53;;;;;;;12.30;8.13;;;2.80;98.50;;;;;;10393055;28;20313;-86
2022/02/27 07:26:57;;;;;;;9.70;7.70;;;2.80;98.70;;;;;;10410108;28;20233;-86
2022/02/27 07:31:59;;;;;;;9.67;7.63;;;2.90;98.80;;;;;;10424533;28;20233;-87
2022/02/27 07:37:02;;;;;;;9.93;7.67;;;2.90;99.20;;;;;;10372855;28;20233;-86
2022/02/27 07:42:06;;;;;;;15.03;8.30;;;3.10;99.50;;;;;;10365792;28;20571;-87
2022/02/27 07:47:09;;;;;;;16.40;9.37;;;3.20;99.70;;;;;;10393170;28;20276;-84
2022/02/27 07:52:12;;;;;;;12.97;8.67;;;3.30;99.10;;;;;;10378509;28;20217;-84
2022/02/27 07:57:16;;;;;;;11.10;7.83;;;3.40;99.40;;;;;;10391767;28;20206;-84
2022/02/27 08:02:18;;;;;;;13.03;8.50;;;3.50;99.00;;;;;;10383034;28;20233;-85
2022/02/27 08:07:20;;;;;;;10.83;8.40;;;3.50;99.50;;;;;;10395898;28;20226;-86
2022/02/27 08:12:24;;;;;;;11.20;8.90;;;3.70;99.50;;;;;;10383442;28;20695;-87
2022/02/27 08:17:26;;;;;;;14.70;9.07;;;3.80;99.70;;;;;;10390158;28;20644;-85
2022/02/27 08:22:28;;;;;;;13.37;9.13;;;3.90;99.40;;;;;;10379646;28;20269;-86
2022/02/27 08:27:32;;;;;;;10.77;9.67;;;4.00;99.70;;;;;;10397325;28;20201;-86
2022/02/27 08:32:34;;;;;;;13.67;8.50;;;4.10;99.90;;;;;;10446335;23;20236;-81
2022/02/27 08:37:36;;;;;;;12.63;8.80;;;4.30;99.90;;;;;;10417728;28;20212;-81
2022/02/27 08:42:40;;;;;;;13.10;8.90;;;4.50;99.90;;;;;;10439651;28;20589;-81
2022/02/27 08:47:42;;;;;;;9.40;8.30;;;4.70;99.80;;;;;;10439323;28;20611;-81
2022/02/27 08:52:44;;;;;;;9.83;7.23;;;5.00;98.90;;;;;;10433001;28;20217;-81
2022/02/27 08:57:48;;;;;;;12.23;8.20;;;5.20;98.80;;;;;;10436059;28;20202;-81
2022/02/27 09:02:50;;;;;;;7.57;6.87;;;5.40;99.10;;;;;;10434135;28;20235;-81
2022/02/27 09:07:52;;;;;;;7.20;6.30;;;5.70;97.40;;;;;;10451230;28;20262;-80
2022/02/27 09:12:56;;;;;;;7.67;6.93;;;6.00;94.00;;;;;;10441360;28;20213;-80
2022/02/27 09:17:58;;;;;;;7.80;6.60;;;6.20;94.30;;;;;;10459781;28;20197;-80
2022/02/27 09:23:00;;;;;;;10.33;7.17;;;6.40;94.50;;;;;;10443556;28;20242;-80
2022/02/27 09:28:04;;;;;;;6.30;5.70;;;6.70;91.80;;;;;;10456035;28;20225;-80
2022/02/27 09:33:06;;;;;;;6.83;6.10;;;6.80;91.60;;;;;;10439478;28;20221;-80
2022/02/27 09:38:08;;;;;;;7.43;6.50;;;6.90;91.80;;;;;;10462280;28;20204;-80
2022/02/27 09:43:13;;;;;;;7.77;6.07;;;7.10;92.50;;;;;;10461233;28;20243;-79
2022/02/27 09:48:16;;;;;;;6.77;5.23;;;7.30;91.60;;;;;;10459779;28;20207;-80
2022/02/27 09:53:18;;;;;;;6.97;5.73;;;7.40;91.00;;;;;;10440070;28;20217;-80
2022/02/27 09:58:22;;;;;;;6.37;5.70;;;7.50;87.90;;;;;;10421680;28;20201;-80
2022/02/27 10:03:28;;;;;;;5.63;4.90;;;7.60;90.20;;;;;;10429079;28;20248;-80
2022/02/27 10:08:37;;;;;;;6.33;5.50;;;7.80;89.40;;;;;;10434544;28;20214;-81
2022/02/27 10:13:42;;;;;;;6.20;5.53;;;8.00;84.70;;;;;;10451373;28;20223;-80
2022/02/27 10:18:46;;;;;;;5.57;5.07;;;7.90;86.00;;;;;;10426654;28;20247;-81
2022/02/27 10:23:56;;;;;;;6.03;5.07;;;7.70;81.40;;;;;;10461414;28;20220;-81
2022/02/27 10:29:09;;;;;;;5.13;4.73;;;7.50;81.80;;;;;;10439445;28;20679;-81
2022/02/27 10:34:16;;;;;;;5.83;4.57;;;7.40;83.10;;;;;;10434521;28;20197;-81
2022/02/27 10:39:30;;;;;;;5.63;5.10;;;7.30;84.30;;;;;;10426859;28;20236;-80
2022/02/27 10:44:34;;;;;;;5.10;4.70;;;7.30;81.20;;;;;;10434788;28;20255;-81
2022/02/27 10:49:36;;;;;;;5.13;4.63;;;7.30;81.50;;;;;;10458899;28;20217;-81
2022/02/27 10:54:39;;;;;;;7.67;4.83;;;7.40;79.20;;;;;;10439895;28;20204;-80
2022/02/27 10:59:43;;;;;;;5.53;4.33;;;7.50;78.40;;;;;;10433916;28;20498;-81
2022/02/27 11:04:48;;;;;;;4.60;4.20;;;7.40;76.90;;;;;;10439659;28;20254;-80
2022/02/27 11:09:50;;;;;;;6.90;4.20;;;7.40;78.70;;;;;;10457774;28;20377;-80
2022/02/27 11:14:55;;;;;;;4.63;4.23;;;7.50;74.70;;;;;;10437812;28;20228;-80
2022/02/27 11:19:58;;;;;;;4.07;3.80;;;7.50;71.80;;;;;;10437189;28;20292;-80
2022/02/27 11:25:02;;;;;;;4.00;3.70;;;7.50;72.40;;;;;;10420232;28;20598;-79
2022/02/27 11:30:07;;;;;;;3.43;3.23;;;7.50;71.70;;;;;;10432411;28;20217;-79
2022/02/27 11:35:09;;;;;;;3.70;3.40;;;7.50;73.20;;;;;;10441144;28;20544;-79
2022/02/27 11:40:31;;;;;;;4.07;3.67;;;7.60;71.20;;;;;;10454266;28;20592;-79
2022/02/27 11:46:09;;;;;;;4.07;3.67;;;7.60;70.50;;;;;;10453200;28;20205;-79
2022/02/27 11:51:11;;;;;;;4.53;4.10;;;7.70;67.90;;;;;;10273358;28;20236;-78
2022/02/27 11:56:13;;;;;;;4.93;4.20;;;7.70;70.40;;;;;;10388204;28;20206;-78
2022/02/27 12:01:36;;;;;;;4.53;4.13;;;7.70;72.10;;;;;;10411674;28;20969;-78
2022/02/27 12:07:05;;;;;;;4.60;4.20;;;7.70;71.90;;;;;;10423066;28;20263;-79
2022/02/27 12:12:07;;;;;;;6.70;4.50;;;7.80;72.10;;;;;;10420120;28;20304;-78
2022/02/27 12:17:11;;;;;;;6.03;4.93;;;7.80;72.00;;;;;;10411475;28;20214;-79
2022/02/27 12:22:43;;;;;;;4.87;4.43;;;7.90;73.20;;;;;;10452958;28;20245;-79
2022/02/27 12:27:45;;;;;;;5.37;4.97;;;8.00;74.30;;;;;;10420497;28;20280;-78
2022/02/27 12:32:49;;;;;;;4.70;4.30;;;8.10;75.10;;;;;;10430592;28;20236;-79
2022/02/27 12:37:51;;;;;;;5.13;4.63;;;8.10;75.20;;;;;;10431517;28;20213;-79
2022/02/27 12:43:01;;;;;;;4.87;4.47;;;8.20;71.50;;;;;;10429021;28;20232;-79
2022/02/27 12:48:12;;;;;;;4.20;3.83;;;8.10;70.00;;;;;;10433778;28;20228;-78
2022/02/27 12:53:15;;;;;;;4.53;4.13;;;8.20;67.60;;;;;;10454294;28;20689;-77
2022/02/27 12:58:18;;;;;;;4.77;4.10;;;8.10;68.90;;;;;;10421831;28;20202;-78
2022/02/27 13:03:21;;;;;;;4.10;3.80;;;8.10;73.00;;;;;;10442744;28;20263;-79
2022/02/27 13:08:23;;;;;;;4.60;3.97;;;8.20;71.10;;;;;;10428702;28;20194;-79
2022/02/27 13:13:25;;;;;;;4.80;4.40;;;8.30;69.80;;;;;;10432958;28;20642;-78
2022/02/27 13:18:29;;;;;;;5.13;4.73;;;8.30;69.50;;;;;;10451509;28;20209;-78
2022/02/27 13:23:32;;;;;;;4.90;4.33;;;8.30;73.50;;;;;;10451301;28;20602;-77
2022/02/27 13:28:34;;;;;;;4.30;3.93;;;8.30;71.50;;;;;;10432922;28;20228;-78
2022/02/27 13:33:38;;;;;;;5.00;4.03;;;8.40;74.50;;;;;;10444318;28;20276;-77
2022/02/27 13:38:40;;;;;;;7.47;4.40;;;8.40;72.80;;;;;;10425243;28;20594;-78
2022/02/27 13:43:43;;;;;;;4.07;3.67;;;8.40;75.70;;;;;;10449561;28;20695;-78
2022/02/27 13:48:46;;;;;;;4.57;4.17;;;8.50;67.50;;;;;;10449172;28;20597;-78
2022/02/27 13:53:48;;;;;;;5.70;4.80;;;8.50;69.70;;;;;;10446615;28;20626;-77
2022/02/27 13:58:50;;;;;;;4.97;4.13;;;8.50;72.30;;;;;;10436005;28;20217;-78
2022/02/27 14:03:54;;;;;;;4.80;3.70;;;8.60;69.60;;;;;;10441627;28;20744;-78
2022/02/27 14:08:58;;;;;;;4.13;3.83;;;8.60;71.80;;;;;;10404067;28;20305;-77
2022/02/27 14:14:07;;;;;;;3.63;3.43;;;8.60;73.70;;;;;;10414636;28;20182;-78
2022/02/27 14:19:22;;;;;;;4.00;3.70;;;8.70;67.40;;;;;;10410708;28;20233;-78
2022/02/27 14:24:24;;;;;;;4.50;4.10;;;8.70;68.60;;;;;;10426569;28;20224;-78
2022/02/27 14:29:34;;;;;;;6.47;4.20;;;8.70;67.10;;;;;;10449395;28;20283;-78
2022/02/27 14:34:37;;;;;;;3.80;3.50;;;8.70;67.30;;;;;;10431724;28;20562;-78
2022/02/27 14:39:39;;;;;;;5.00;4.17;;;8.80;67.50;;;;;;10453558;28;20213;-78
2022/02/27 14:44:42;;;;;;;4.60;3.90;;;8.70;68.40;;;;;;10450906;28;20308;-79
2022/02/27 14:49:46;;;;;;;4.23;3.93;;;8.80;66.30;;;;;;10423291;28;20218;-79
2022/02/27 14:54:48;;;;;;;7.23;4.10;;;8.80;66.80;;;;;;10425025;28;20212;-78
2022/02/27 14:59:50;;;;;;;4.50;4.10;;;8.80;69.70;;;;;;10433750;28;20221;-79
2022/02/27 15:04:54;;;;;;;4.30;3.90;;;8.80;71.90;;;;;;10440192;28;20276;-79
2022/02/27 15:09:56;;;;;;;4.03;3.70;;;8.90;66.00;;;;;;10447160;28;20217;-79
2022/02/27 15:14:59;;;;;;;4.20;3.80;;;8.90;66.30;;;;;;10448411;28;20212;-78
2022/02/27 15:20:02;;;;;;;6.50;3.97;;;8.90;66.40;;;;;;10382408;28;20229;-81
2022/02/27 15:25:06;;;;;;;4.30;3.93;;;8.80;66.40;;;;;;10418370;28;20591;-80
2022/02/27 15:30:09;;;;;;;4.90;3.87;;;8.80;73.40;;;;;;10435613;28;20225;-81
2022/02/27 15:35:13;;;;;;;4.70;3.60;;;8.90;74.20;;;;;;10413541;28;20204;-81
2022/02/27 15:40:15;;;;;;;4.90;4.10;;;8.90;73.90;;;;;;10422622;28;20255;-81
2022/02/27 15:45:17;;;;;;;4.10;3.70;;;8.90;75.20;;;;;;10443225;28;20208;-80
2022/02/27 15:50:21;;;;;;;4.40;4.00;;;8.90;76.00;;;;;;10428343;28;20225;-81
2022/02/27 15:55:23;;;;;;;4.23;3.83;;;8.90;70.70;;;;;;10417482;28;20201;-82
2022/02/27 16:00:25;;;;;;;4.00;3.50;;;8.90;78.40;;;;;;10391236;28;20222;-82
2022/02/27 16:05:29;;;;;;;5.20;3.70;;;8.80;76.80;;;;;;10412725;28;20232;-82
2022/02/27 16:10:31;;;;;;;4.10;3.80;;;8.80;78.40;;;;;;10439505;28;20213;-79
2022/02/27 16:15:33;;;;;;;3.80;3.50;;;8.80;79.90;;;;;;10425336;28;20644;-79
2022/02/27 16:20:37;;;;;;;4.67;3.83;;;8.70;78.80;;;;;;10404557;28;20271;-80
2022/02/27 16:25:40;;;;;;;4.63;3.93;;;8.70;79.60;;;;;;10426443;28;20197;-80
2022/02/27 16:30:42;;;;;;;4.17;3.77;;;8.70;75.90;;;;;;10429853;28;20308;-80
2022/02/27 16:35:48;;;;;;;4.63;4.23;;;8.60;79.90;;;;;;10400992;28;20369;-80
2022/02/27 16:40:50;;;;;;;4.10;3.80;;;8.60;76.00;;;;;;10425340;28;20224;-80
2022/02/27 16:45:52;;;;;;;4.43;4.03;;;8.50;74.10;;;;;;10444721;28;20668;-80
2022/02/27 16:50:58;;;;;;;5.87;5.20;;;8.40;76.90;;;;;;10403001;28;20221;-80
2022/02/27 16:56:00;;;;;;;4.77;4.37;;;8.40;79.90;;;;;;10405567;28;20206;-80
2022/02/27 17:01:02;;;;;;;5.03;4.63;;;8.30;77.50;;;;;;10420240;28;20228;-80
2022/02/27 17:06:06;;;;;;;5.00;4.60;;;8.20;75.60;;;;;;10448721;28;20197;-81
2022/02/27 17:11:08;;;;;;;5.47;4.73;;;8.20;78.30;;;;;;10408752;28;20565;-79
2022/02/27 17:16:11;;;;;;;5.37;4.87;;;8.10;80.10;;;;;;10450052;28;20263;-82
2022/02/27 17:21:15;;;;;;;5.13;4.63;;;8.00;82.40;;;;;;10426647;28;20217;-82
2022/02/27 17:26:17;;;;;;;5.07;4.53;;;7.90;73.10;;;;;;10444149;28;20212;-82
2022/02/27 17:31:19;;;;;;;5.27;4.77;;;7.90;75.50;;;;;;10416628;28;20313;-82
2022/02/27 17:36:23;;;;;;;6.07;5.10;;;7.80;76.90;;;;;;10404900;28;20781;-82
2022/02/27 17:41:26;;;;;;;6.00;5.47;;;7.80;79.40;;;;;;10427140;28;20233;-81
2022/02/27 17:46:29;;;;;;;62.07;24.10;;;7.70;77.10;;;;;;10427232;28;20266;-80
2022/02/27 17:51:32;;;;;;;23.53;13.83;;;7.70;78.40;;;;;;10414754;28;20209;-80
2022/02/27 17:56:35;;;;;;;14.83;9.10;;;7.70;80.00;;;;;;10430960;28;20287;-81
2022/02/27 18:01:37;;;;;;;5.67;4.93;;;7.60;80.50;;;;;;10439466;28;20246;-81
2022/02/27 18:06:40;;;;;;;6.00;5.50;;;7.50;77.70;;;;;;10414247;28;20292;-80
2022/02/27 18:11:43;;;;;;;14.20;10.63;;;7.50;78.70;;;;;;10427856;28;20309;-81
2022/02/27 18:16:45;;;;;;;9.10;8.07;;;7.50;76.60;;;;;;10421062;28;20748;-79
2022/02/27 18:21:49;;;;;;;7.87;6.60;;;7.40;78.10;;;;;;10441945;28;20232;-81
2022/02/27 18:26:51;;;;;;;7.73;6.37;;;7.30;80.30;;;;;;10430529;28;20222;-81
2022/02/27 18:31:53;;;;;;;9.13;7.73;;;7.30;81.40;;;;;;10430820;28;20233;-80
2022/02/27 18:36:57;;;;;;;10.80;9.80;;;7.20;79.40;;;;;;10427558;28;20271;-81
2022/02/27 18:41:59;;;;;;;8.10;7.30;;;7.20;80.90;;;;;;10400659;28;20225;-81
2022/02/27 18:47:02;;;;;;;10.33;8.43;;;7.10;81.60;;;;;;10421368;28;20284;-82
2022/02/27 18:52:05;;;;;;;8.93;8.13;;;7.10;82.60;;;;;;10407908;28;20218;-81
2022/02/27 18:57:08;;;;;;;6.60;6.00;;;7.00;81.00;;;;;;10424362;28;20201;-82
2022/02/27 19:02:10;;;;;;;8.40;6.40;;;7.00;80.30;;;;;;10401977;28;20229;-83
2022/02/27 19:07:14;;;;;;;6.93;6.23;;;6.80;79.60;;;;;;10392328;28;20355;-80
2022/02/27 19:12:17;;;;;;;10.37;7.90;;;6.60;80.00;;;;;;10385622;28;20256;-81
2022/02/27 19:17:20;;;;;;;8.27;7.57;;;6.40;80.90;;;;;;10409091;28;20236;-82
2022/02/27 19:22:23;;;;;;;8.50;7.63;;;6.20;81.20;;;;;;10397528;28;20214;-81
2022/02/27 19:27:25;;;;;;;9.83;8.03;;;5.90;81.20;;;;;;10391795;28;20201;-80
2022/02/27 19:32:27;;;;;;;8.07;7.30;;;5.70;81.80;;;;;;10425524;28;20225;-82
2022/02/27 19:37:31;;;;;;;7.70;7.00;;;5.60;82.00;;;;;;10381460;28;20202;-81
2022/02/27 19:42:33;;;;;;;8.93;8.07;;;5.50;81.90;;;;;;10378065;28;20618;-80
2022/02/27 19:47:36;;;;;;;7.83;6.80;;;5.40;83.80;;;;;;10396113;28;20320;-80
2022/02/27 19:52:40;;;;;;;8.03;7.07;;;5.30;83.50;;;;;;10427272;28;20240;-80
2022/02/27 19:57:43;;;;;;;8.87;7.70;;;5.30;85.00;;;;;;10413831;28;20212;-81
2022/02/27 20:02:45;;;;;;;8.00;7.17;;;5.20;86.20;;;;;;10403437;28;20228;-82
2022/02/27 20:07:49;;;;;;;8.90;7.93;;;5.20;86.90;;;;;;10406246;28;20256;-82
2022/02/27 20:12:51;;;;;;;8.47;7.60;;;5.20;86.90;;;;;;10408601;28;20221;-81
2022/02/27 20:17:54;;;;;;;7.60;6.90;;;5.20;86.50;;;;;;10412326;28;20220;-81
2022/02/27 20:22:57;;;;;;;8.00;7.20;;;5.10;84.00;;;;;;10427552;28;20229;-82
2022/02/27 20:28:03;;;;;;;8.90;8.00;;;5.00;84.50;;;;;;10417145;28;20245;-82
2022/02/27 20:33:05;;;;;;;9.33;8.30;;;4.90;86.50;;;;;;10418774;28;20301;-79
2022/02/27 20:38:09;;;;;;;8.50;7.63;;;4.90;85.80;;;;;;10417992;28;20201;-81
2022/02/27 20:43:11;;;;;;;9.60;8.57;;;4.80;87.10;;;;;;10431248;28;20627;-81
2022/02/27 20:48:14;;;;;;;9.73;8.70;;;4.70;85.30;;;;;;10449145;28;20228;-80
2022/02/27 20:53:17;;;;;;;11.23;8.70;;;4.70;86.20;;;;;;10444729;28;20263;-79
2022/02/27 20:58:20;;;;;;;9.47;8.57;;;4.60;87.20;;;;;;10429250;28;20222;-80
2022/02/27 21:03:22;;;;;;;9.47;8.50;;;4.50;88.20;;;;;;10406182;28;20694;-81
2022/02/27 21:08:26;;;;;;;11.50;9.47;;;4.50;86.30;;;;;;10436607;28;20202;-80
2022/02/27 21:13:28;;;;;;;11.00;9.60;;;4.40;87.40;;;;;;10455945;28;20204;-79
2022/02/27 21:18:30;;;;;;;9.83;8.80;;;4.30;86.30;;;;;;10442141;28;20190;-80
2022/02/27 21:23:34;;;;;;;9.13;8.23;;;4.20;86.00;;;;;;10427631;28;20202;-81
2022/02/27 21:28:36;;;;;;;10.10;7.97;;;4.10;88.00;;;;;;10399042;28;20754;-79
2022/02/27 21:33:38;;;;;;;9.80;8.80;;;4.10;86.10;;;;;;10436033;28;20197;-79
2022/02/27 21:38:42;;;;;;;8.80;7.90;;;4.00;87.20;;;;;;10408847;28;20309;-81
2022/02/27 21:43:44;;;;;;;9.33;8.23;;;3.90;87.30;;;;;;10416790;28;20220;-79
2022/02/27 21:48:47;;;;;;;8.93;8.03;;;3.80;88.60;;;;;;10418693;28;20221;-79
2022/02/27 21:53:51;;;;;;;12.10;10.93;;;3.80;88.70;;;;;;10443743;28;20224;-81
2022/02/27 21:58:54;;;;;;;8.87;8.00;;;3.80;89.50;;;;;;10420490;28;20305;-80
2022/02/27 22:03:57;;;;;;;8.33;7.43;;;3.70;87.90;;;;;;10420665;28;20202;-80
2022/02/27 22:09:02;;;;;;;8.33;7.43;;;3.70;89.90;;;;;;10420370;28;20268;-80
2022/02/27 22:14:05;;;;;;;8.10;7.33;;;3.80;89.40;;;;;;10406169;28;20201;-80
2022/02/27 22:19:08;;;;;;;9.93;8.53;;;3.70;88.90;;;;;;10449451;28;20222;-79
2022/02/27 22:24:12;;;;;;;9.40;8.47;;;3.70;90.00;;;;;;10433365;28;20209;-80
2022/02/27 22:29:14;;;;;;;10.30;8.50;;;3.70;90.00;;;;;;10427742;28;20233;-81
2022/02/27 22:34:16;;;;;;;8.57;7.67;;;3.60;88.80;;;;;;10432896;28;20224;-79
2022/02/27 22:39:19;;;;;;;9.40;8.40;;;3.60;89.20;;;;;;10407079;28;20217;-81
2022/02/27 22:44:21;;;;;;;11.57;9.20;;;3.60;89.70;;;;;;10423248;28;20723;-79
2022/02/27 22:49:25;;;;;;;9.53;7.93;;;3.50;89.20;;;;;;10409280;28;20300;-80
2022/02/27 22:54:28;;;;;;;9.07;8.27;;;3.60;90.50;;;;;;10407113;28;20225;-81
2022/02/27 22:59:30;;;;;;;10.27;8.33;;;3.50;89.10;;;;;;10423412;28;20251;-79
2022/02/27 23:09:54;;;;;;;8.97;7.53;;;3.50;89.20;;;;;;10409745;28;20221;-80
2022/02/27 23:14:56;;;;;;;7.80;7.20;;;3.40;88.30;;;;;;10410277;28;20190;-80
2022/02/27 23:19:58;;;;;;;9.20;8.33;;;3.30;89.70;;;;;;10420135;28;20313;-80
2022/02/27 23:25:01;;;;;;;9.70;8.70;;;3.30;90.30;;;;;;10426496;28;20213;-81
2022/02/27 23:30:04;;;;;;;9.30;8.40;;;3.30;90.50;;;;;;10427716;28;20233;-79
2022/02/27 23:35:07;;;;;;;9.47;8.60;;;3.30;89.90;;;;;;10432863;28;20206;-80
2022/02/27 23:40:13;;;;;;;9.03;8.17;;;3.20;90.20;;;;;;10390479;28;20253;-81
2022/02/27 23:45:15;;;;;;;10.73;9.63;;;3.20;89.20;;;;;;10403244;28;20221;-80
2022/02/27 23:50:18;;;;;;;11.80;9.20;;;3.20;90.10;;;;;;10419217;28;20313;-80
2022/02/27 23:55:22;;;;;;;10.13;9.23;;;3.20;90.60;;;;;;10420868;28;20197;-80
